Time;durP1;ratioP1;P1;durP2;ratioP2;P2;SDS_P1;SDS_P2;PMS_P1;PMS_P2;Temp;Humidity;BMP_temperature;BMP_pressure;BME280_temperature;BME280_humidity;BME280_pressure;Samples;Min_cycle;Max_cycle;Signal;HPM_P1;HPM_P2
2022/11/30 00:02:16;;;;;;;73.47;30.40;;;6.60;95.40;;;;;;5027666;28;20295;-73
2022/11/30 00:04:41;;;;;;;57.63;28.70;;;6.60;95.40;;;;;;5028240;28;20189;-72
2022/11/30 00:07:07;;;;;;;67.60;27.73;;;6.60;95.30;;;;;;5031703;28;20185;-73
2022/11/30 00:09:32;;;;;;;71.30;29.40;;;6.70;95.30;;;;;;5029167;28;20208;-73
2022/11/30 00:11:58;;;;;;;69.30;27.47;;;6.70;95.20;;;;;;5029269;28;20205;-73
2022/11/30 00:14:23;;;;;;;76.23;31.47;;;6.70;95.20;;;;;;5031777;28;20229;-73
2022/11/30 00:16:49;;;;;;;73.33;28.50;;;6.70;95.20;;;;;;5031441;28;21000;-73
2022/11/30 00:19:14;;;;;;;72.20;30.63;;;6.60;95.10;;;;;;5030546;28;20189;-74
2022/11/30 00:21:40;;;;;;;70.50;29.57;;;6.50;95.10;;;;;;5027909;28;20219;-74
2022/11/30 00:24:06;;;;;;;71.47;30.80;;;6.50;95.50;;;;;;5036729;28;20571;-72
2022/11/30 00:26:31;;;;;;;72.67;30.07;;;6.50;95.60;;;;;;5046187;28;20208;-72
2022/11/30 00:28:57;;;;;;;69.17;29.37;;;6.50;95.60;;;;;;5039969;28;20231;-73
2022/11/30 00:31:23;;;;;;;78.60;30.87;;;6.50;95.70;;;;;;5027392;28;20209;-72
2022/11/30 00:33:49;;;;;;;72.93;28.33;;;6.50;95.70;;;;;;5030496;28;20269;-72
2022/11/30 00:36:20;;;;;;;85.10;30.80;;;6.50;95.70;;;;;;5031919;28;21141;-74
2022/11/30 00:38:47;;;;;;;72.97;29.90;;;6.50;95.70;;;;;;5030273;28;20181;-72
2022/11/30 00:41:14;;;;;;;72.97;31.40;;;6.50;95.80;;;;;;5028494;28;20486;-74
2022/11/30 00:43:39;;;;;;;77.20;30.07;;;6.60;95.80;;;;;;5033248;28;20422;-73
2022/11/30 00:46:07;;;;;;;73.10;30.40;;;6.60;95.80;;;;;;5044138;28;20475;-72
2022/11/30 00:48:33;;;;;;;79.90;30.17;;;6.60;95.90;;;;;;5037381;28;20182;-73
2022/11/30 00:51:00;;;;;;;66.53;29.60;;;6.50;95.80;;;;;;5027671;28;21025;-73
2022/11/30 00:53:25;;;;;;;81.47;31.67;;;6.50;95.80;;;;;;5032367;28;20802;-74
2022/11/30 00:55:51;;;;;;;81.13;32.17;;;6.50;95.80;;;;;;5030380;28;20436;-72
2022/11/30 00:58:17;;;;;;;73.60;32.07;;;6.50;95.90;;;;;;5032569;28;20195;-72
2022/11/30 01:00:43;;;;;;;58.10;28.50;;;6.60;96.00;;;;;;5027900;28;20209;-72
2022/11/30 01:03:09;;;;;;;74.70;30.97;;;6.60;95.90;;;;;;5030288;28;20436;-73
2022/11/30 01:05:35;;;;;;;69.10;31.03;;;6.60;95.90;;;;;;5032086;28;20739;-73
2022/11/30 01:08:02;;;;;;;64.23;28.20;;;6.40;95.80;;;;;;5032375;28;20489;-73
2022/11/30 01:10:28;;;;;;;71.93;30.80;;;6.30;95.90;;;;;;5029964;28;20487;-74
2022/11/30 01:12:54;;;;;;;83.23;31.87;;;6.20;96.10;;;;;;5031728;28;20436;-72
2022/11/30 01:15:19;;;;;;;71.77;32.33;;;6.20;96.20;;;;;;5031435;28;20192;-73
2022/11/30 01:17:45;;;;;;;75.33;31.80;;;6.20;96.40;;;;;;5031737;28;20255;-73
2022/11/30 01:20:11;;;;;;;68.23;29.60;;;6.30;96.50;;;;;;5030062;28;20239;-73
2022/11/30 01:22:36;;;;;;;70.93;30.27;;;6.30;96.50;;;;;;5029279;28;20193;-72
2022/11/30 01:25:02;;;;;;;80.73;29.03;;;6.30;96.60;;;;;;5031530;28;20562;-74
2022/11/30 01:27:28;;;;;;;76.70;30.20;;;6.20;96.50;;;;;;5031665;28;20204;-74
2022/11/30 01:29:54;;;;;;;75.60;29.93;;;6.20;96.70;;;;;;5031115;28;20463;-72
2022/11/30 01:32:19;;;;;;;75.17;31.60;;;6.20;96.70;;;;;;5026766;28;20220;-72
2022/11/30 01:34:45;;;;;;;72.13;30.10;;;6.20;96.80;;;;;;5031014;28;20209;-73
2022/11/30 01:37:10;;;;;;;80.87;31.30;;;6.20;96.80;;;;;;5031596;28;20189;-73
2022/11/30 01:39:36;;;;;;;63.90;29.97;;;6.10;96.70;;;;;;5030872;28;20579;-73
2022/11/30 01:42:01;;;;;;;69.83;31.33;;;6.10;96.80;;;;;;5027643;28;20267;-72
2022/11/30 01:44:27;;;;;;;69.87;30.67;;;6.20;96.90;;;;;;5030642;28;20211;-73
2022/11/30 01:47:08;;;;;;;73.97;32.03;;;6.20;96.80;;;;;;5030275;28;20203;-74
2022/11/30 01:49:38;;;;;;;71.33;30.17;;;6.20;96.80;;;;;;5031447;28;20209;-74
2022/11/30 01:52:18;;;;;;;67.00;27.30;;;6.30;96.80;;;;;;5027776;28;20471;-74
2022/11/30 01:54:50;;;;;;;63.20;27.10;;;6.40;96.80;;;;;;5029640;28;20416;-73
2022/11/30 01:57:34;;;;;;;64.23;27.50;;;6.50;96.90;;;;;;5032597;28;21419;-72
2022/11/30 02:00:03;;;;;;;69.30;29.07;;;6.60;96.80;;;;;;5028029;28;20466;-73
2022/11/30 02:02:43;;;;;;;66.00;28.60;;;6.50;96.60;;;;;;5027544;28;20842;-73
2022/11/30 02:05:10;;;;;;;67.30;29.60;;;6.40;96.30;;;;;;5029426;28;20423;-73
2022/11/30 02:07:36;;;;;;;68.00;27.43;;;6.30;96.10;;;;;;5029265;28;20420;-73
2022/11/30 02:10:01;;;;;;;63.90;27.27;;;6.20;96.10;;;;;;5029943;28;20521;-75
2022/11/30 02:12:47;;;;;;;62.77;27.20;;;6.30;96.10;;;;;;5027906;28;20447;-72
2022/11/30 02:15:21;;;;;;;69.60;29.97;;;6.20;96.20;;;;;;5030865;28;20197;-72
2022/11/30 02:18:05;;;;;;;70.67;27.80;;;6.30;96.20;;;;;;5031290;28;20879;-74
2022/11/30 02:20:42;;;;;;;71.67;26.90;;;6.20;96.20;;;;;;5028344;28;20467;-72
2022/11/30 02:23:31;;;;;;;56.80;25.10;;;6.30;96.30;;;;;;5030909;28;20432;-73
2022/11/30 02:26:16;;;;;;;62.40;28.43;;;6.30;96.30;;;;;;5031247;28;20474;-73
2022/11/30 02:28:57;;;;;;;62.60;27.80;;;6.40;96.40;;;;;;5027215;28;20883;-73
2022/11/30 02:31:29;;;;;;;68.57;28.10;;;6.40;96.30;;;;;;5026897;28;20502;-72
2022/11/30 02:33:58;;;;;;;54.63;26.20;;;6.40;96.20;;;;;;5028205;28;20908;-74
2022/11/30 02:36:25;;;;;;;54.83;25.03;;;6.40;96.10;;;;;;5029424;28;20412;-72
2022/11/30 02:38:51;;;;;;;59.17;26.57;;;6.40;96.10;;;;;;5029653;28;20423;-73
2022/11/30 02:41:17;;;;;;;60.60;26.77;;;6.40;96.00;;;;;;5027601;28;20491;-73
2022/11/30 02:43:43;;;;;;;61.50;26.43;;;6.50;96.10;;;;;;5028629;28;20866;-71
2022/11/30 02:46:22;;;;;;;55.03;25.60;;;6.50;96.00;;;;;;5030226;28;20205;-72
2022/11/30 02:49:21;;;;;;;53.70;26.40;;;6.50;95.90;;;;;;5029358;28;20420;-73
2022/11/30 02:51:47;;;;;;;55.60;24.30;;;6.40;95.60;;;;;;5024955;28;20830;-73
2022/11/30 02:54:13;;;;;;;55.53;25.23;;;6.40;95.60;;;;;;5030571;28;20416;-72
2022/11/30 02:56:39;;;;;;;51.37;24.30;;;6.40;95.70;;;;;;5031578;28;20415;-73
2022/11/30 02:59:04;;;;;;;59.90;25.20;;;6.50;95.80;;;;;;5031486;28;20569;-75
2022/11/30 03:01:30;;;;;;;52.53;23.63;;;6.50;95.80;;;;;;5026815;28;20243;-73
2022/11/30 03:03:55;;;;;;;54.50;23.60;;;6.60;95.70;;;;;;5027153;28;20177;-74
2022/11/30 03:06:21;;;;;;;52.17;23.57;;;6.70;95.60;;;;;;5031996;28;20213;-73
2022/11/30 03:08:46;;;;;;;49.20;23.07;;;6.70;95.50;;;;;;5030352;28;20666;-73
2022/11/30 03:11:12;;;;;;;49.60;23.20;;;6.70;95.50;;;;;;5026321;28;20216;-74
2022/11/30 03:13:38;;;;;;;54.40;24.73;;;6.80;95.40;;;;;;5029941;28;20185;-75
2022/11/30 03:16:09;;;;;;;55.77;25.00;;;6.70;95.30;;;;;;5031381;28;20204;-75
2022/11/30 03:18:34;;;;;;;50.03;22.73;;;6.70;95.20;;;;;;5031548;28;20553;-73
2022/11/30 03:21:03;;;;;;;49.10;21.27;;;6.70;95.20;;;;;;5026889;28;20482;-75
2022/11/30 03:23:29;;;;;;;50.30;23.37;;;6.60;95.00;;;;;;5030629;28;20185;-73
2022/11/30 03:25:58;;;;;;;48.83;23.97;;;6.60;95.00;;;;;;5030916;28;20990;-72
2022/11/30 03:28:24;;;;;;;47.30;21.50;;;6.60;95.00;;;;;;5030306;28;20189;-73
2022/11/30 03:30:50;;;;;;;51.43;22.73;;;6.70;95.00;;;;;;5026496;28;20498;-74
2022/11/30 03:33:16;;;;;;;46.20;22.10;;;6.60;95.00;;;;;;5029636;28;20188;-71
2022/11/30 03:35:42;;;;;;;44.87;21.97;;;6.70;95.00;;;;;;5029126;28;20549;-73
2022/11/30 03:38:08;;;;;;;44.67;21.43;;;6.60;95.00;;;;;;5029837;28;20416;-72
2022/11/30 03:40:36;;;;;;;49.07;22.20;;;6.60;94.90;;;;;;5024973;28;21029;-72
2022/11/30 03:43:02;;;;;;;42.43;21.60;;;6.50;94.90;;;;;;5029391;28;20185;-74
2022/11/30 03:45:28;;;;;;;49.57;21.50;;;6.50;95.00;;;;;;5028047;28;20485;-72
2022/11/30 03:47:53;;;;;;;50.27;22.90;;;6.50;95.00;;;;;;5030256;28;20832;-71
2022/11/30 03:50:19;;;;;;;48.57;19.13;;;6.50;95.00;;;;;;5027599;28;20213;-71
2022/11/30 03:52:45;;;;;;;52.47;22.03;;;6.50;95.00;;;;;;5028627;28;20188;-74
2022/11/30 03:55:10;;;;;;;45.57;20.43;;;6.50;95.10;;;;;;5029675;28;20571;-75
2022/11/30 03:57:36;;;;;;;50.03;21.67;;;6.50;95.10;;;;;;5030454;28;20192;-72
2022/11/30 04:00:04;;;;;;;50.90;23.50;;;6.50;95.10;;;;;;5029997;28;20489;-72
2022/11/30 04:02:29;;;;;;;45.70;20.87;;;6.50;95.20;;;;;;5028718;28;20192;-71
2022/11/30 04:04:55;;;;;;;51.60;21.60;;;6.60;95.40;;;;;;5036859;28;20431;-73
2022/11/30 04:07:21;;;;;;;43.10;20.23;;;6.50;95.20;;;;;;5040750;28;20555;-71
2022/11/30 04:09:46;;;;;;;48.03;22.23;;;6.60;95.40;;;;;;5037728;28;20208;-72
2022/11/30 04:12:12;;;;;;;45.93;20.17;;;6.60;95.50;;;;;;5031265;28;20205;-73
2022/11/30 04:14:38;;;;;;;43.97;22.10;;;6.60;95.50;;;;;;5034014;28;20225;-72
2022/11/30 04:17:03;;;;;;;51.90;21.80;;;6.60;95.50;;;;;;5030408;28;20199;-71
2022/11/30 04:19:29;;;;;;;41.23;20.43;;;6.60;95.50;;;;;;5029629;28;21729;-73
2022/11/30 04:21:54;;;;;;;42.53;19.93;;;6.70;95.40;;;;;;5028557;28;20578;-73
2022/11/30 04:24:20;;;;;;;42.00;19.27;;;6.80;95.50;;;;;;5028431;28;20205;-71
2022/11/30 04:26:46;;;;;;;37.00;19.23;;;6.80;95.40;;;;;;5030828;28;20203;-73
2022/11/30 04:29:11;;;;;;;42.20;19.77;;;6.70;95.20;;;;;;5026239;28;20293;-72
2022/11/30 04:31:37;;;;;;;40.13;18.90;;;6.70;95.20;;;;;;5026154;28;21072;-72
2022/11/30 04:34:03;;;;;;;38.90;19.00;;;6.80;95.20;;;;;;5031726;28;20212;-75
2022/11/30 04:36:28;;;;;;;43.73;19.90;;;6.80;95.20;;;;;;5033646;28;20672;-75
2022/11/30 04:38:54;;;;;;;41.17;19.90;;;6.80;95.10;;;;;;5034392;28;20235;-72
2022/11/30 04:41:19;;;;;;;36.40;18.47;;;6.80;95.10;;;;;;5032966;28;20209;-73
2022/11/30 04:43:45;;;;;;;46.43;20.50;;;6.80;95.00;;;;;;5041961;28;20277;-71
2022/11/30 04:46:11;;;;;;;40.50;20.07;;;6.70;94.80;;;;;;5047712;28;20201;-72
2022/11/30 04:48:37;;;;;;;48.70;20.33;;;6.70;94.80;;;;;;5042077;28;20177;-72
2022/11/30 04:51:04;;;;;;;46.70;22.30;;;6.70;94.90;;;;;;5040354;28;20475;-73
2022/11/30 04:53:31;;;;;;;49.37;20.33;;;6.60;94.90;;;;;;5044146;28;20191;-73
2022/11/30 04:55:56;;;;;;;48.00;22.67;;;6.60;95.00;;;;;;5049805;28;20420;-73
2022/11/30 04:58:22;;;;;;;44.50;20.93;;;6.60;95.10;;;;;;5050863;28;20492;-73
2022/11/30 05:00:48;;;;;;;49.00;22.57;;;6.60;95.10;;;;;;5044391;28;20769;-71
2022/11/30 05:03:13;;;;;;;41.57;19.93;;;6.50;95.10;;;;;;5036592;28;20202;-73
2022/11/30 05:05:39;;;;;;;42.97;20.57;;;6.50;95.20;;;;;;5033853;28;20215;-72
2022/11/30 05:08:05;;;;;;;44.50;20.57;;;6.50;95.40;;;;;;5034782;28;20226;-72
2022/11/30 05:10:32;;;;;;;43.90;19.67;;;6.50;95.40;;;;;;5033392;28;22222;-71
2022/11/30 05:12:58;;;;;;;49.80;21.97;;;6.40;95.50;;;;;;5042219;28;20188;-74
2022/11/30 05:15:24;;;;;;;42.93;20.03;;;6.40;95.50;;;;;;5040343;28;20938;-72
2022/11/30 05:17:50;;;;;;;49.13;22.17;;;6.40;95.70;;;;;;5042692;28;20420;-74
2022/11/30 05:20:16;;;;;;;36.67;18.67;;;6.40;95.70;;;;;;5035688;28;20439;-74
2022/11/30 05:22:42;;;;;;;44.63;21.10;;;6.50;95.80;;;;;;5034185;28;20193;-73
2022/11/30 05:25:08;;;;;;;49.23;20.93;;;6.50;95.90;;;;;;5034822;28;20459;-71
2022/11/30 05:27:34;;;;;;;44.13;20.53;;;6.50;95.80;;;;;;5037489;28;20220;-72
2022/11/30 05:30:00;;;;;;;49.60;20.63;;;6.50;95.90;;;;;;5034122;28;21307;-74
2022/11/30 05:32:26;;;;;;;46.60;21.00;;;6.60;95.90;;;;;;5029663;28;20436;-73
2022/11/30 05:34:51;;;;;;;41.90;20.07;;;6.60;95.80;;;;;;5027963;28;20269;-72
2022/11/30 05:37:17;;;;;;;47.07;20.97;;;6.60;95.80;;;;;;5028488;28;20560;-72
2022/11/30 05:39:43;;;;;;;49.40;20.13;;;6.60;95.80;;;;;;5028134;28;20251;-72
2022/11/30 05:42:08;;;;;;;51.57;21.00;;;6.60;95.70;;;;;;5026704;28;20467;-72
2022/11/30 05:44:34;;;;;;;51.63;20.97;;;6.60;95.70;;;;;;5030783;28;20656;-72
2022/11/30 05:46:59;;;;;;;43.27;19.70;;;6.60;95.70;;;;;;5032085;28;20219;-73
2022/11/30 05:49:25;;;;;;;49.27;21.00;;;6.60;95.70;;;;;;5030762;28;20247;-74
2022/11/30 05:51:51;;;;;;;45.93;20.50;;;6.60;95.70;;;;;;5027224;28;20227;-75
2022/11/30 05:54:16;;;;;;;39.30;20.07;;;6.50;95.70;;;;;;5030711;28;20272;-74
2022/11/30 05:56:42;;;;;;;45.73;19.90;;;6.50;95.70;;;;;;5031165;28;20185;-72
2022/11/30 05:59:09;;;;;;;39.80;20.27;;;6.50;95.80;;;;;;5031335;28;20190;-71
2022/11/30 06:01:35;;;;;;;41.40;19.70;;;6.50;95.80;;;;;;5028630;28;20213;-72
2022/11/30 06:04:05;;;;;;;44.10;20.30;;;6.50;95.80;;;;;;5030807;28;20434;-72
2022/11/30 06:06:30;;;;;;;48.77;21.20;;;6.50;95.90;;;;;;5031052;28;20185;-71
2022/11/30 06:08:56;;;;;;;42.63;20.43;;;6.60;95.90;;;;;;5030659;28;20431;-74
2022/11/30 06:11:21;;;;;;;42.87;18.13;;;6.50;95.80;;;;;;5027568;28;20217;-72
2022/11/30 06:13:47;;;;;;;51.90;20.87;;;6.50;95.80;;;;;;5030692;28;20192;-74
2022/11/30 06:16:12;;;;;;;40.40;18.53;;;6.50;95.90;;;;;;5031172;28;20611;-73
2022/11/30 06:18:38;;;;;;;43.37;19.60;;;6.50;96.00;;;;;;5031911;28;20357;-72
2022/11/30 06:21:07;;;;;;;39.43;19.97;;;6.50;96.00;;;;;;5028363;28;20213;-73
2022/11/30 06:23:33;;;;;;;42.80;20.40;;;6.60;96.00;;;;;;5031035;28;20817;-72
2022/11/30 06:26:06;;;;;;;37.37;18.97;;;6.60;96.10;;;;;;5031264;28;20431;-72
2022/11/30 06:28:32;;;;;;;39.27;17.63;;;6.60;96.10;;;;;;5031242;28;20962;-73
2022/11/30 06:31:02;;;;;;;37.70;17.80;;;6.50;96.00;;;;;;5024104;28;20566;-73
2022/11/30 06:33:28;;;;;;;42.83;19.03;;;6.50;96.00;;;;;;5030503;28;20185;-74
2022/11/30 06:35:54;;;;;;;39.93;19.50;;;6.50;95.90;;;;;;5029219;28;20419;-74
2022/11/30 06:38:19;;;;;;;43.30;19.87;;;6.40;95.90;;;;;;5032308;28;20773;-73
2022/11/30 06:40:45;;;;;;;41.53;17.80;;;6.40;95.90;;;;;;5030415;28;20495;-72
2022/11/30 06:43:11;;;;;;;42.53;19.10;;;6.30;95.90;;;;;;5034847;28;20415;-77
2022/11/30 06:45:37;;;;;;;42.17;19.20;;;6.40;96.00;;;;;;5033881;28;20228;-75
2022/11/30 06:48:02;;;;;;;40.37;18.57;;;6.30;96.00;;;;;;5034789;28;20205;-75
2022/11/30 06:50:28;;;;;;;38.57;20.77;;;6.40;96.10;;;;;;5030059;28;20522;-73
2022/11/30 06:52:55;;;;;;;36.43;18.30;;;6.40;96.00;;;;;;5033155;28;20239;-73
2022/11/30 06:55:21;;;;;;;41.13;19.70;;;6.30;96.00;;;;;;5031853;28;20177;-73
2022/11/30 06:57:46;;;;;;;42.27;19.10;;;6.40;96.00;;;;;;5030578;28;20458;-73
2022/11/30 07:00:13;;;;;;;40.47;18.07;;;6.40;96.10;;;;;;5028228;28;20922;-76
2022/11/30 07:02:38;;;;;;;34.60;16.90;;;6.40;96.00;;;;;;5028683;28;20196;-72
2022/11/30 07:05:04;;;;;;;37.37;18.67;;;6.40;96.00;;;;;;5028706;28;20431;-74
2022/11/30 07:07:30;;;;;;;36.10;18.00;;;6.50;96.10;;;;;;5030439;28;20846;-72
2022/11/30 07:09:56;;;;;;;41.77;19.60;;;6.50;96.10;;;;;;5025367;28;20513;-75
2022/11/30 07:12:23;;;;;;;39.83;18.50;;;6.70;96.00;;;;;;5029185;28;20470;-75
2022/11/30 07:14:51;;;;;;;42.30;19.87;;;6.70;96.00;;;;;;5032467;28;20801;-73
2022/11/30 07:17:17;;;;;;;43.27;19.80;;;6.60;95.90;;;;;;5032131;28;20489;-72
2022/11/30 07:19:43;;;;;;;44.80;19.33;;;6.50;95.80;;;;;;5031286;28;20436;-73
2022/11/30 07:22:08;;;;;;;37.43;19.10;;;6.50;95.80;;;;;;5026636;28;20466;-74
2022/11/30 07:27:18;;;;;;;43.33;19.43;;;6.50;95.80;;;;;;5033273;28;20328;-71
2022/11/30 07:29:44;;;;;;;47.80;19.97;;;6.50;95.90;;;;;;5036089;28;20518;-73
2022/11/30 07:32:09;;;;;;;44.87;20.43;;;6.50;95.90;;;;;;5034070;28;20593;-73
2022/11/30 07:34:35;;;;;;;35.93;18.37;;;6.60;96.00;;;;;;5037017;28;20177;-74
2022/11/30 07:37:00;;;;;;;36.80;20.40;;;6.60;96.00;;;;;;5038130;28;20197;-73
2022/11/30 07:39:26;;;;;;;39.27;18.87;;;6.70;96.00;;;;;;5038261;28;20185;-73
2022/11/30 07:41:51;;;;;;;41.50;20.37;;;6.70;96.00;;;;;;5032424;28;20211;-73
2022/11/30 07:44:17;;;;;;;42.20;19.83;;;6.70;96.00;;;;;;5032788;28;20584;-72
2022/11/30 07:46:43;;;;;;;36.90;18.73;;;6.80;95.90;;;;;;5032902;28;20214;-72
2022/11/30 07:49:09;;;;;;;39.40;17.83;;;6.90;96.00;;;;;;5032330;28;20268;-73
2022/11/30 07:51:36;;;;;;;38.50;18.80;;;7.00;96.00;;;;;;5029525;28;20224;-74
2022/11/30 07:54:02;;;;;;;41.27;18.47;;;7.00;95.80;;;;;;5025063;28;20439;-73
2022/11/30 07:56:28;;;;;;;38.60;18.80;;;6.90;95.60;;;;;;5040625;28;20428;-73
2022/11/30 07:58:57;;;;;;;34.60;17.43;;;7.10;95.50;;;;;;5042278;28;20422;-71
2022/11/30 08:01:25;;;;;;;41.50;18.50;;;7.10;95.30;;;;;;5030484;28;20503;-74
2022/11/30 08:03:52;;;;;;;36.03;19.00;;;7.10;95.20;;;;;;5038656;28;20443;-74
2022/11/30 08:06:23;;;;;;;40.33;17.20;;;7.10;95.00;;;;;;5037044;28;20424;-75
2022/11/30 08:08:52;;;;;;;36.97;18.50;;;7.20;94.80;;;;;;5038277;28;20489;-76
2022/11/30 08:11:20;;;;;;;39.27;18.47;;;7.20;94.70;;;;;;5030343;28;20483;-74
2022/11/30 08:13:46;;;;;;;32.87;16.40;;;7.20;94.50;;;;;;5029152;28;20486;-73
2022/11/30 08:16:15;;;;;;;36.40;16.90;;;7.20;94.20;;;;;;5038292;28;20811;-74
2022/11/30 08:18:41;;;;;;;43.27;19.10;;;7.30;94.10;;;;;;5038365;28;20196;-74
2022/11/30 08:21:08;;;;;;;35.40;17.80;;;7.40;94.00;;;;;;5033959;28;20463;-74
2022/11/30 08:23:37;;;;;;;36.20;17.87;;;7.50;93.80;;;;;;5035259;28;20424;-75
2022/11/30 08:26:11;;;;;;;35.53;16.93;;;7.40;93.10;;;;;;5035172;28;20420;-74
2022/11/30 08:28:37;;;;;;;41.33;19.47;;;7.20;91.80;;;;;;5034163;28;20419;-74
2022/11/30 08:31:05;;;;;;;32.70;15.73;;;7.20;91.20;;;;;;5031070;28;20487;-75
2022/11/30 08:33:32;;;;;;;35.60;16.83;;;7.20;91.00;;;;;;5035536;28;20280;-76
2022/11/30 08:36:08;;;;;;;37.13;17.13;;;7.30;91.00;;;;;;5038676;28;20446;-73
2022/11/30 08:38:35;;;;;;;36.70;17.90;;;7.40;91.00;;;;;;5035295;28;20437;-75
2022/11/30 08:41:01;;;;;;;35.00;16.77;;;7.50;90.70;;;;;;5030968;28;20478;-73
2022/11/30 08:43:27;;;;;;;33.30;16.87;;;7.50;90.60;;;;;;5031466;28;20454;-74
2022/11/30 08:45:53;;;;;;;29.50;14.63;;;7.50;90.20;;;;;;5032281;28;20443;-75
2022/11/30 08:48:19;;;;;;;40.17;17.20;;;7.60;89.70;;;;;;5032660;28;20181;-74
2022/11/30 08:50:44;;;;;;;33.90;15.10;;;7.70;89.70;;;;;;5029134;28;20320;-75
2022/11/30 08:53:10;;;;;;;36.70;16.80;;;7.80;89.30;;;;;;5032497;28;20447;-74
2022/11/30 08:55:36;;;;;;;35.57;15.47;;;7.90;88.40;;;;;;5032695;28;20186;-75
2022/11/30 08:58:01;;;;;;;32.57;14.60;;;8.00;87.70;;;;;;5032423;28;20656;-74
2022/11/30 09:00:27;;;;;;;28.80;14.13;;;8.10;87.10;;;;;;5028693;28;20341;-74
2022/11/30 09:02:52;;;;;;;33.73;15.30;;;8.00;87.00;;;;;;5032055;28;20197;-76
2022/11/30 09:05:18;;;;;;;32.73;15.07;;;8.10;86.90;;;;;;5032248;28;20197;-74
2022/11/30 09:07:43;;;;;;;29.60;14.30;;;8.00;86.80;;;;;;5032517;28;20843;-74
2022/11/30 09:10:10;;;;;;;35.33;14.30;;;8.00;87.00;;;;;;5030342;28;20209;-74
2022/11/30 09:12:37;;;;;;;35.97;15.83;;;8.00;86.90;;;;;;5025440;28;20204;-73
2022/11/30 09:15:05;;;;;;;35.37;15.30;;;8.00;86.80;;;;;;5032343;28;20498;-73
2022/11/30 09:17:30;;;;;;;39.03;17.17;;;8.00;86.60;;;;;;5032299;28;20547;-75
2022/11/30 09:19:56;;;;;;;35.60;15.87;;;8.00;86.80;;;;;;5031246;28;20539;-75
2022/11/30 09:22:22;;;;;;;34.33;16.20;;;7.90;87.10;;;;;;5027730;28;20579;-75
2022/11/30 09:24:48;;;;;;;39.00;16.73;;;7.90;87.60;;;;;;5031765;28;20189;-75
2022/11/30 09:27:13;;;;;;;39.90;17.93;;;7.90;87.80;;;;;;5033099;28;20431;-74
2022/11/30 09:29:39;;;;;;;40.00;16.83;;;7.90;88.00;;;;;;5031040;28;20221;-73
2022/11/30 09:32:05;;;;;;;41.77;18.57;;;7.90;88.30;;;;;;5028435;28;20315;-75
2022/11/30 09:34:31;;;;;;;39.17;18.13;;;7.70;88.40;;;;;;5031220;28;20189;-74
2022/11/30 09:36:56;;;;;;;36.10;16.27;;;7.70;88.70;;;;;;5030478;28;20535;-75
2022/11/30 09:39:22;;;;;;;31.40;15.17;;;7.70;88.90;;;;;;5030871;28;20265;-74
2022/11/30 09:42:03;;;;;;;28.97;14.47;;;7.70;89.00;;;;;;5023894;28;20888;-74
2022/11/30 09:44:36;;;;;;;33.53;15.57;;;7.80;88.70;;;;;;5031086;28;20177;-75
2022/11/30 09:47:27;;;;;;;34.90;15.70;;;7.80;88.70;;;;;;5031192;28;20954;-74
2022/11/30 09:49:53;;;;;;;40.43;18.30;;;7.70;88.60;;;;;;5030926;28;20523;-74
2022/11/30 09:52:34;;;;;;;35.87;17.50;;;7.60;88.90;;;;;;5029379;28;20459;-73
2022/11/30 09:55:06;;;;;;;45.13;18.43;;;7.60;88.90;;;;;;5026215;28;20420;-75
2022/11/30 09:58:13;;;;;;;42.27;19.30;;;7.60;88.40;;;;;;5028256;28;20435;-73
2022/11/30 10:00:38;;;;;;;36.43;17.83;;;7.60;88.70;;;;;;4986433;28;20492;-72
2022/11/30 10:03:05;;;;;;;35.93;17.03;;;7.60;88.90;;;;;;4982689;28;20453;-72
2022/11/30 10:05:36;;;;;;;37.50;16.97;;;7.70;89.30;;;;;;4989140;28;20198;-71
2022/11/30 10:08:14;;;;;;;34.80;16.90;;;7.80;88.90;;;;;;4982731;28;20934;-70
2022/11/30 10:11:06;;;;;;;40.50;16.30;;;7.80;88.40;;;;;;4981599;28;20571;-71
2022/11/30 10:13:53;;;;;;;36.50;16.33;;;7.90;88.10;;;;;;4988514;28;20596;-69
2022/11/30 10:16:36;;;;;;;34.80;15.23;;;7.80;87.30;;;;;;4985129;28;20431;-71
2022/11/30 10:19:11;;;;;;;37.53;15.97;;;7.80;86.90;;;;;;4987895;28;20777;-73
2022/11/30 10:21:53;;;;;;;37.20;15.90;;;7.80;87.00;;;;;;4986247;28;20486;-70
2022/11/30 10:24:50;;;;;;;34.87;15.20;;;7.80;87.00;;;;;;4987978;28;20414;-74
2022/11/30 10:27:21;;;;;;;32.77;14.53;;;8.00;86.80;;;;;;4985956;28;20451;-73
2022/11/30 10:29:46;;;;;;;34.87;14.73;;;8.00;86.30;;;;;;5000993;28;20481;-74
2022/11/30 10:32:21;;;;;;;35.77;16.37;;;8.00;85.60;;;;;;5002008;28;20564;-75
2022/11/30 10:34:54;;;;;;;28.93;14.27;;;8.00;85.30;;;;;;5020419;28;20200;-75
2022/11/30 10:37:34;;;;;;;36.50;13.87;;;8.10;85.70;;;;;;5037076;28;20423;-76
2022/11/30 10:40:16;;;;;;;33.33;15.20;;;8.20;85.70;;;;;;5035803;28;21232;-75
2022/11/30 10:42:51;;;;;;;29.73;14.00;;;8.10;85.50;;;;;;5032399;28;20431;-71
2022/11/30 10:45:20;;;;;;;30.23;14.30;;;8.00;85.50;;;;;;5035390;28;20443;-75
2022/11/30 10:47:54;;;;;;;28.63;13.23;;;8.00;85.30;;;;;;5033974;28;20411;-72
2022/11/30 10:50:25;;;;;;;25.50;12.07;;;8.00;84.70;;;;;;5035257;28;20516;-74
2022/11/30 10:52:52;;;;;;;27.57;13.37;;;8.20;84.30;;;;;;5038111;28;20815;-74
2022/11/30 10:55:24;;;;;;;26.17;11.23;;;8.30;84.00;;;;;;5040707;28;21038;-74
2022/11/30 10:57:56;;;;;;;23.47;10.27;;;8.50;83.30;;;;;;5040258;28;20489;-73
2022/11/30 11:00:22;;;;;;;25.23;11.50;;;8.50;81.70;;;;;;5034172;28;20565;-74
2022/11/30 11:02:48;;;;;;;30.60;12.27;;;8.50;81.50;;;;;;5036142;28;20936;-73
2022/11/30 11:05:25;;;;;;;27.40;11.90;;;8.40;82.20;;;;;;5039733;28;20212;-72
2022/11/30 11:08:21;;;;;;;24.77;12.43;;;8.40;82.40;;;;;;5040602;28;20934;-73
2022/11/30 11:10:50;;;;;;;26.07;12.33;;;8.40;82.80;;;;;;5036852;28;20476;-72
2022/11/30 11:13:37;;;;;;;27.23;12.93;;;8.30;82.50;;;;;;5040746;28;20416;-74
2022/11/30 11:16:04;;;;;;;23.63;12.20;;;8.30;83.10;;;;;;5036583;28;20499;-72
2022/11/30 11:18:50;;;;;;;26.17;11.87;;;8.20;82.70;;;;;;5039580;28;20427;-75
2022/11/30 11:21:21;;;;;;;37.30;14.73;;;8.10;83.10;;;;;;5038940;28;20496;-73
2022/11/30 11:23:50;;;;;;;23.93;11.47;;;8.10;83.60;;;;;;5037176;28;20421;-74
2022/11/30 11:26:19;;;;;;;27.93;12.17;;;8.00;83.40;;;;;;5040262;28;20428;-72
2022/11/30 11:28:51;;;;;;;32.30;14.13;;;8.00;83.60;;;;;;5042829;28;20435;-72
2022/11/30 11:31:27;;;;;;;29.27;13.00;;;7.90;83.40;;;;;;5028630;28;20487;-73
2022/11/30 11:33:53;;;;;;;23.80;12.03;;;7.80;84.00;;;;;;5032936;28;20459;-74
2022/11/30 11:36:26;;;;;;;26.00;13.00;;;7.80;84.40;;;;;;5035126;28;20412;-74
2022/11/30 11:38:51;;;;;;;29.90;12.10;;;7.90;84.70;;;;;;5030775;28;20180;-71
2022/11/30 11:41:32;;;;;;;30.97;13.67;;;7.90;84.70;;;;;;5032807;28;20820;-73
2022/11/30 11:44:21;;;;;;;31.67;13.77;;;7.90;84.40;;;;;;5036109;28;20189;-75
2022/11/30 11:47:01;;;;;;;20.80;10.93;;;8.00;84.60;;;;;;5044698;28;20459;-74
2022/11/30 11:49:34;;;;;;;21.60;10.70;;;8.00;84.60;;;;;;5044071;28;20431;-76
2022/11/30 11:52:05;;;;;;;20.93;10.23;;;8.10;84.40;;;;;;5044196;28;20507;-74
2022/11/30 11:54:55;;;;;;;20.43;9.73;;;8.00;83.60;;;;;;5043378;28;20454;-74
2022/11/30 11:57:26;;;;;;;17.90;8.63;;;8.00;83.40;;;;;;5044818;28;20412;-74
2022/11/30 12:00:06;;;;;;;22.40;9.93;;;8.10;83.70;;;;;;5039272;28;20439;-72
2022/11/30 12:02:44;;;;;;;25.23;12.00;;;8.10;83.40;;;;;;5035213;28;20435;-75
2022/11/30 12:05:31;;;;;;;29.10;12.40;;;8.00;84.30;;;;;;5033834;28;20426;-76
2022/11/30 12:08:11;;;;;;;25.47;12.43;;;8.00;85.00;;;;;;5036070;28;20438;-75
2022/11/30 12:10:47;;;;;;;28.27;12.70;;;7.90;85.60;;;;;;5028488;28;20483;-75
2022/11/30 12:13:27;;;;;;;26.60;12.53;;;7.90;86.20;;;;;;5030917;28;20435;-76
2022/11/30 12:16:19;;;;;;;32.20;13.93;;;7.90;86.50;;;;;;5038385;28;20422;-76
2022/11/30 12:18:50;;;;;;;32.00;13.13;;;7.80;86.50;;;;;;5030094;28;20431;-77
2022/11/30 12:21:27;;;;;;;32.67;13.17;;;7.70;87.00;;;;;;5028940;28;20459;-77
2022/11/30 12:24:19;;;;;;;29.03;13.17;;;7.50;86.80;;;;;;5032400;28;20427;-72
2022/11/30 12:26:57;;;;;;;30.60;13.93;;;7.60;87.10;;;;;;5032347;28;20420;-75
2022/11/30 12:29:26;;;;;;;26.60;12.80;;;7.60;87.30;;;;;;5033704;28;20466;-76
2022/11/30 12:32:00;;;;;;;34.00;14.97;;;7.50;87.00;;;;;;5028171;28;20533;-76
2022/11/30 12:34:38;;;;;;;29.80;13.97;;;7.50;86.00;;;;;;5033496;28;20459;-77
2022/11/30 12:37:09;;;;;;;29.30;13.10;;;7.50;85.60;;;;;;5033413;28;20489;-76
2022/11/30 12:39:59;;;;;;;27.53;12.97;;;7.50;85.30;;;;;;5032501;28;20430;-76
2022/11/30 12:42:54;;;;;;;25.20;12.87;;;7.50;85.00;;;;;;5028982;28;20499;-78
2022/11/30 12:45:27;;;;;;;22.30;11.13;;;7.50;85.20;;;;;;5031827;28;20822;-75
2022/11/30 12:48:18;;;;;;;32.67;12.67;;;7.60;85.00;;;;;;5032953;28;20785;-74
2022/11/30 12:51:08;;;;;;;23.30;11.30;;;7.50;85.00;;;;;;5030232;28;20479;-76
2022/11/30 12:54:13;;;;;;;24.07;11.80;;;7.50;85.00;;;;;;5031557;28;20785;-77